Time;durP1;ratioP1;P1;durP2;ratioP2;P2;SDS_P1;SDS_P2;PMS_P1;PMS_P2;Temp;Humidity;BMP_temperature;BMP_pressure;BME280_temperature;BME280_humidity;BME280_pressure;Samples;Min_cycle;Max_cycle;Signal;HPM_P1;HPM_P2
2023/06/17 00:00:23;;;;;;;11.33;6.30;;;13.80;66.20;;;;;;5981722;24;20450;-63
2023/06/17 00:02:50;;;;;;;12.73;5.90;;;13.80;68.30;;;;;;5981943;24;20419;-64
2023/06/17 00:05:17;;;;;;;10.43;6.13;;;13.80;67.90;;;;;;5980957;24;20420;-64
2023/06/17 00:07:44;;;;;;;9.30;5.13;;;13.70;69.30;;;;;;5982235;24;20509;-64
2023/06/17 00:10:11;;;;;;;10.43;5.40;;;13.60;66.10;;;;;;5982247;24;20418;-63
2023/06/17 00:12:40;;;;;;;8.63;4.70;;;13.50;64.20;;;;;;5981378;24;20434;-63
2023/06/17 00:15:08;;;;;;;8.30;4.87;;;13.40;65.20;;;;;;5980941;24;20475;-63
2023/06/17 00:17:35;;;;;;;11.67;6.30;;;13.30;68.40;;;;;;5981427;24;20430;-63
2023/06/17 00:20:07;;;;;;;10.23;5.80;;;13.30;72.90;;;;;;5981146;24;20543;-63
2023/06/17 00:22:35;;;;;;;9.90;6.20;;;13.30;72.60;;;;;;5982191;24;20442;-63
2023/06/17 00:25:03;;;;;;;9.10;6.03;;;13.30;76.00;;;;;;5981066;24;20515;-63
2023/06/17 00:27:29;;;;;;;9.27;6.27;;;13.20;76.40;;;;;;5981814;24;20426;-64
2023/06/17 00:29:59;;;;;;;12.20;7.07;;;13.30;76.40;;;;;;5980870;24;20478;-63
2023/06/17 00:32:26;;;;;;;14.83;6.93;;;13.30;75.50;;;;;;5981961;24;20420;-63
2023/06/17 00:34:53;;;;;;;12.30;6.50;;;13.30;75.20;;;;;;5981574;24;20423;-63
2023/06/17 00:37:20;;;;;;;9.47;7.00;;;13.20;77.40;;;;;;5981712;24;20455;-63
2023/06/17 00:39:47;;;;;;;11.90;6.50;;;13.20;77.20;;;;;;5981176;24;20516;-63
2023/06/17 00:42:14;;;;;;;9.70;6.13;;;13.20;79.80;;;;;;5981513;24;20505;-64
2023/06/17 00:44:41;;;;;;;14.13;6.60;;;13.10;79.80;;;;;;5981408;24;20422;-63
2023/06/17 00:47:11;;;;;;;10.37;6.33;;;13.10;82.10;;;;;;5981946;24;20419;-63
2023/06/17 00:49:40;;;;;;;11.03;6.80;;;13.00;82.40;;;;;;5981583;24;20434;-64
2023/06/17 00:52:09;;;;;;;10.93;6.93;;;12.90;81.00;;;;;;5983892;24;20509;-63
2023/06/17 00:54:38;;;;;;;15.53;6.77;;;12.90;82.80;;;;;;5982753;24;20505;-63
2023/06/17 00:57:09;;;;;;;11.93;9.20;;;12.90;87.20;;;;;;5983157;24;20419;-64
2023/06/17 00:59:38;;;;;;;13.93;12.53;;;12.90;94.90;;;;;;5983158;24;20430;-64
2023/06/17 01:02:05;;;;;;;19.60;11.47;;;12.80;98.80;;;;;;5983582;24;20800;-63
2023/06/17 01:04:34;;;;;;;19.60;9.17;;;12.80;98.80;;;;;;5982670;24;20975;-63
2023/06/17 01:07:21;;;;;;;10.50;6.97;;;12.70;96.80;;;;;;5983482;24;20427;-63
2023/06/17 01:09:55;;;;;;;11.10;7.20;;;12.60;96.70;;;;;;5982596;24;20485;-63
2023/06/17 01:12:26;;;;;;;11.60;7.83;;;12.60;96.30;;;;;;5982806;24;20433;-63
2023/06/17 01:14:57;;;;;;;12.13;7.10;;;12.50;96.30;;;;;;5982448;24;20931;-64
2023/06/17 01:17:25;;;;;;;14.13;8.13;;;12.50;96.50;;;;;;5982917;24;20955;-63
2023/06/17 01:19:55;;;;;;;9.13;7.33;;;12.40;97.10;;;;;;5982341;24;20446;-63
2023/06/17 01:22:22;;;;;;;15.10;7.73;;;12.50;97.30;;;;;;5982627;24;20422;-63
2023/06/17 01:24:51;;;;;;;13.13;7.93;;;12.50;97.10;;;;;;5982769;24;20419;-63
2023/06/17 01:27:18;;;;;;;11.70;8.50;;;12.50;97.60;;;;;;5983015;24;20426;-63
2023/06/17 01:29:48;;;;;;;9.50;8.00;;;12.40;98.60;;;;;;5982548;24;20946;-63
2023/06/17 01:32:15;;;;;;;22.80;10.50;;;12.40;97.90;;;;;;5983216;24;20429;-63
2023/06/17 01:34:49;;;;;;;11.47;8.70;;;12.40;98.60;;;;;;5982780;24;20504;-63
2023/06/17 01:37:24;;;;;;;10.90;9.17;;;12.20;98.20;;;;;;5982251;24;20438;-64
2023/06/17 01:39:55;;;;;;;9.57;7.80;;;12.10;98.50;;;;;;5982898;24;20489;-63
2023/06/17 01:42:30;;;;;;;14.10;9.17;;;12.00;98.40;;;;;;5981545;24;20404;-63
2023/06/17 01:44:59;;;;;;;15.10;8.70;;;12.00;98.40;;;;;;5982431;24;20406;-63
2023/06/17 01:47:27;;;;;;;14.87;8.90;;;12.00;98.30;;;;;;5983092;24;20454;-63
2023/06/17 01:49:58;;;;;;;14.77;10.00;;;12.00;98.40;;;;;;5982867;24;20425;-63
2023/06/17 01:52:25;;;;;;;18.43;12.23;;;12.00;99.40;;;;;;5982849;24;20864;-63
2023/06/17 01:54:54;;;;;;;14.90;8.70;;;12.00;98.70;;;;;;5982570;24;20429;-63
2023/06/17 01:57:21;;;;;;;12.70;11.40;;;11.90;98.40;;;;;;5982707;24;20788;-63
2023/06/17 01:59:48;;;;;;;13.30;12.00;;;11.90;99.20;;;;;;5982497;24;20477;-63
2023/06/17 02:02:15;;;;;;;15.80;13.07;;;11.80;99.90;;;;;;5982696;24;20426;-63
2023/06/17 02:04:42;;;;;;;18.23;13.73;;;11.80;99.90;;;;;;5981654;24;20455;-63
2023/06/17 02:07:10;;;;;;;14.10;11.63;;;11.70;99.90;;;;;;5982703;24;20426;-63
2023/06/17 02:09:37;;;;;;;13.00;11.70;;;11.60;99.90;;;;;;5982276;24;20421;-63
2023/06/17 02:12:07;;;;;;;14.13;12.30;;;11.70;99.90;;;;;;5982309;24;20464;-63
2023/06/17 02:14:34;;;;;;;13.80;12.33;;;11.70;99.90;;;;;;5982763;24;20422;-63
2023/06/17 02:17:02;;;;;;;16.07;14.47;;;11.60;99.90;;;;;;5982015;24;20502;-63
2023/06/17 02:19:31;;;;;;;20.83;19.13;;;11.60;99.90;;;;;;5982598;24;20450;-63
2023/06/17 02:21:59;;;;;;;20.20;18.47;;;11.60;99.90;;;;;;5982917;24;20812;-63
2023/06/17 02:24:26;;;;;;;21.00;19.00;;;11.60;99.90;;;;;;5981817;24;20461;-63
2023/06/17 02:26:52;;;;;;;29.80;27.37;;;11.50;99.90;;;;;;5982459;24;20731;-63
2023/06/17 02:29:21;;;;;;;40.73;38.33;;;11.50;99.90;;;;;;5982230;24;20464;-63
2023/06/17 02:31:47;;;;;;;66.77;63.60;;;11.50;99.90;;;;;;5982468;24;20424;-63
2023/06/17 02:34:15;;;;;;;55.00;51.97;;;11.50;99.90;;;;;;5982096;24;20433;-63
2023/06/17 02:36:42;;;;;;;42.00;39.40;;;11.50;99.90;;;;;;5982855;24;20492;-62
2023/06/17 02:39:10;;;;;;;27.60;25.70;;;11.50;99.90;;;;;;5982296;24;20745;-62
2023/06/17 02:41:37;;;;;;;41.37;38.90;;;11.40;99.90;;;;;;5982275;24;20865;-62
2023/06/17 02:44:04;;;;;;;77.23;73.53;;;11.30;99.90;;;;;;5981512;24;20426;-62
2023/06/17 02:46:32;;;;;;;55.67;52.80;;;11.30;99.90;;;;;;5982679;24;20426;-62
2023/06/17 02:48:59;;;;;;;91.97;88.20;;;11.20;99.90;;;;;;5981988;24;20512;-62
2023/06/17 02:51:27;;;;;;;143.97;138.00;;;11.20;99.90;;;;;;5980507;24;20417;-62
2023/06/17 02:53:54;;;;;;;182.37;175.53;;;11.20;99.90;;;;;;5981538;24;20417;-62
2023/06/17 02:56:21;;;;;;;190.63;183.63;;;11.20;99.90;;;;;;5982622;24;20421;-62
2023/06/17 02:58:49;;;;;;;190.77;183.80;;;11.20;99.90;;;;;;5982349;24;20421;-62
2023/06/17 03:01:16;;;;;;;149.47;144.07;;;11.20;99.90;;;;;;5982494;24;20773;-62
2023/06/17 03:03:45;;;;;;;120.97;116.23;;;11.20;99.90;;;;;;5982047;24;20508;-62
2023/06/17 03:06:13;;;;;;;147.43;141.80;;;11.10;99.90;;;;;;5981836;24;20998;-62
2023/06/17 03:08:41;;;;;;;132.67;127.27;;;11.00;99.90;;;;;;5982010;24;20473;-62
2023/06/17 03:11:08;;;;;;;113.37;108.93;;;11.00;99.90;;;;;;5982306;24;20422;-62
2023/06/17 03:13:35;;;;;;;133.37;128.20;;;11.00;99.90;;;;;;5981382;23;20405;-62
2023/06/17 03:16:02;;;;;;;89.37;85.70;;;11.00;99.90;;;;;;5982506;24;20421;-62
2023/06/17 03:18:29;;;;;;;99.23;95.37;;;11.00;99.90;;;;;;5981537;24;20428;-62
2023/06/17 03:20:58;;;;;;;84.30;80.27;;;11.00;99.90;;;;;;5982021;24;20449;-62
2023/06/17 03:23:25;;;;;;;62.10;59.10;;;10.90;99.90;;;;;;5981340;24;20428;-62
2023/06/17 03:25:52;;;;;;;67.70;64.60;;;10.90;99.90;;;;;;5982480;24;20453;-62
2023/06/17 03:28:20;;;;;;;83.30;79.80;;;11.00;99.90;;;;;;5982187;24;20482;-62
2023/06/17 03:30:47;;;;;;;77.23;73.37;;;11.00;99.90;;;;;;5982039;24;20496;-62
2023/06/17 03:33:14;;;;;;;53.50;50.90;;;11.00;99.90;;;;;;5981423;24;20430;-62
2023/06/17 03:35:41;;;;;;;81.17;77.43;;;11.10;99.90;;;;;;5981961;24;20422;-62
2023/06/17 03:38:10;;;;;;;88.37;84.37;;;11.10;99.90;;;;;;5982139;24;20453;-62
2023/06/17 03:40:37;;;;;;;56.00;53.20;;;11.20;99.90;;;;;;5981818;24;20508;-62
2023/06/17 03:43:04;;;;;;;48.43;45.93;;;11.20;99.90;;;;;;5981110;24;20505;-62
2023/06/17 03:45:31;;;;;;;53.57;50.87;;;11.20;99.90;;;;;;5982364;24;20485;-62
2023/06/17 03:47:58;;;;;;;55.20;51.43;;;11.20;99.90;;;;;;5981687;24;20456;-62
2023/06/17 03:50:25;;;;;;;61.63;58.70;;;11.30;99.90;;;;;;5982052;24;20425;-62
2023/06/17 03:52:52;;;;;;;75.50;71.90;;;11.40;99.90;;;;;;5981870;24;20461;-62
2023/06/17 03:55:22;;;;;;;95.67;91.40;;;11.40;99.90;;;;;;5981415;24;20422;-62
2023/06/17 03:57:49;;;;;;;85.33;81.20;;;11.50;99.90;;;;;;5982465;24;20420;-62
2023/06/17 04:00:16;;;;;;;55.37;52.27;;;11.50;99.90;;;;;;5981642;24;20440;-62
2023/06/17 04:02:45;;;;;;;61.43;58.23;;;11.50;99.90;;;;;;5981808;24;20464;-62
2023/06/17 04:05:12;;;;;;;92.33;88.43;;;11.60;99.90;;;;;;5981278;24;20921;-62
2023/06/17 04:07:39;;;;;;;102.80;98.20;;;11.60;99.90;;;;;;5981436;24;20512;-62
2023/06/17 04:10:08;;;;;;;95.37;91.07;;;11.60;99.90;;;;;;5982102;24;20421;-62
2023/06/17 04:12:37;;;;;;;106.70;102.10;;;11.70;99.90;;;;;;5981660;24;20428;-62
2023/06/17 04:15:06;;;;;;;109.87;104.87;;;11.70;99.90;;;;;;5981320;24;20422;-62
2023/06/17 04:17:32;;;;;;;77.13;73.73;;;11.70;99.90;;;;;;5982156;24;20785;-62
2023/06/17 04:20:09;;;;;;;74.97;71.40;;;11.80;99.90;;;;;;5980188;24;20426;-62
2023/06/17 04:22:36;;;;;;;110.60;106.00;;;11.80;99.90;;;;;;5981871;24;20445;-62
2023/06/17 04:25:04;;;;;;;106.27;101.67;;;11.90;99.90;;;;;;5981604;24;20914;-62
2023/06/17 04:27:31;;;;;;;108.00;102.83;;;12.00;99.90;;;;;;5983958;24;20504;-62
2023/06/17 04:30:01;;;;;;;82.00;77.83;;;12.10;99.90;;;;;;5983743;24;20427;-62
2023/06/17 04:32:28;;;;;;;44.83;41.83;;;12.20;99.90;;;;;;5983432;24;20980;-62
2023/06/17 04:34:55;;;;;;;26.33;24.10;;;12.20;99.90;;;;;;5983385;24;20809;-62
2023/06/17 04:37:22;;;;;;;26.20;23.50;;;12.30;99.90;;;;;;5983820;24;20422;-62
2023/06/17 04:39:52;;;;;;;21.23;19.53;;;12.40;99.90;;;;;;5983159;24;20422;-62
2023/06/17 04:42:18;;;;;;;28.63;26.17;;;12.50;99.90;;;;;;5983268;24;20450;-62
2023/06/17 04:44:48;;;;;;;27.83;25.70;;;12.60;99.90;;;;;;5982873;24;20464;-62
2023/06/17 04:47:19;;;;;;;20.10;16.30;;;12.70;99.90;;;;;;5983519;24;20426;-62
2023/06/17 04:49:47;;;;;;;21.30;19.37;;;12.70;99.90;;;;;;5983598;24;20793;-62
2023/06/17 04:52:19;;;;;;;21.33;19.53;;;12.80;99.90;;;;;;5983419;24;20499;-62
2023/06/17 04:54:46;;;;;;;29.07;26.87;;;12.90;99.90;;;;;;5982699;24;20486;-62
2023/06/17 04:57:13;;;;;;;23.67;21.57;;;13.00;99.90;;;;;;5983387;24;20428;-62
2023/06/17 04:59:40;;;;;;;25.37;22.60;;;13.10;99.90;;;;;;5983175;24;20461;-62
2023/06/17 05:02:07;;;;;;;28.30;26.10;;;13.20;99.90;;;;;;5983629;24;20603;-62
2023/06/17 05:04:35;;;;;;;21.30;19.10;;;13.30;99.90;;;;;;5983129;24;20514;-62
2023/06/17 05:07:02;;;;;;;14.57;11.70;;;13.50;99.90;;;;;;5983506;24;20472;-62
2023/06/17 05:09:29;;;;;;;22.90;12.00;;;13.60;99.90;;;;;;5983321;24;20519;-62
2023/06/17 05:11:56;;;;;;;15.10;9.50;;;13.60;99.90;;;;;;5982900;24;20900;-62
2023/06/17 05:14:23;;;;;;;14.47;9.03;;;13.80;99.20;;;;;;5982539;24;20451;-62
2023/06/17 05:16:50;;;;;;;16.40;9.67;;;14.00;96.30;;;;;;5983089;24;20919;-63
2023/06/17 05:19:17;;;;;;;19.63;8.87;;;14.30;96.50;;;;;;5983298;24;20427;-62
2023/06/17 05:21:45;;;;;;;14.93;9.00;;;14.80;94.10;;;;;;5982397;24;20974;-62
2023/06/17 05:24:12;;;;;;;15.87;9.50;;;15.30;89.50;;;;;;5982359;24;20423;-63
2023/06/17 05:26:39;;;;;;;17.43;8.50;;;15.90;82.40;;;;;;5982964;24;20502;-63
2023/06/17 05:29:06;;;;;;;11.13;8.67;;;16.70;75.20;;;;;;5982809;24;20420;-63
2023/06/17 05:31:33;;;;;;;20.40;8.87;;;17.30;73.10;;;;;;5983109;24;20444;-63
2023/06/17 05:34:00;;;;;;;14.90;9.10;;;17.90;56.00;;;;;;5982809;24;20419;-63
2023/06/17 05:36:27;;;;;;;13.40;8.57;;;18.10;56.40;;;;;;5982922;24;20420;-63
2023/06/17 05:38:55;;;;;;;12.07;8.77;;;18.30;51.60;;;;;;5982832;24;20943;-63
2023/06/17 05:41:22;;;;;;;14.53;8.10;;;18.90;52.20;;;;;;5983289;24;20439;-63
2023/06/17 05:43:49;;;;;;;13.87;8.43;;;19.40;48.50;;;;;;5982231;24;20957;-63
2023/06/17 05:46:16;;;;;;;11.70;7.80;;;20.00;44.60;;;;;;5983004;24;20499;-63
2023/06/17 05:48:43;;;;;;;13.70;8.13;;;20.50;44.90;;;;;;5982427;24;20425;-63
2023/06/17 05:51:10;;;;;;;14.23;8.10;;;21.10;45.40;;;;;;5982922;24;20741;-63
2023/06/17 05:53:36;;;;;;;11.63;8.60;;;21.10;32.00;;;;;;5981365;24;20420;-63
2023/06/17 05:56:09;;;;;;;13.27;8.73;;;21.50;33.10;;;;;;5981998;24;20435;-63
2023/06/17 05:58:35;;;;;;;13.90;8.77;;;21.30;30.50;;;;;;5982150;24;20407;-63
2023/06/17 06:01:02;;;;;;;11.77;8.30;;;21.40;31.00;;;;;;5981514;24;20567;-63
2023/06/17 06:03:29;;;;;;;12.63;8.83;;;21.80;21.00;;;;;;5981581;24;20752;-63
2023/06/17 06:05:56;;;;;;;12.50;9.37;;;22.20;21.30;;;;;;5982748;24;20426;-63
2023/06/17 06:08:23;;;;;;;13.10;8.80;;;22.30;21.40;;;;;;5982736;24;20426;-63
2023/06/17 06:10:50;;;;;;;13.07;7.77;;;22.40;19.10;;;;;;5982522;24;20468;-63
2023/06/17 06:13:18;;;;;;;13.43;8.30;;;22.60;21.60;;;;;;5981744;24;20892;-62
2023/06/17 06:15:46;;;;;;;12.70;8.20;;;22.90;16.20;;;;;;5982013;24;20947;-63
2023/06/17 06:18:13;;;;;;;15.30;7.73;;;23.20;21.00;;;;;;5981989;24;20423;-63
2023/06/17 06:20:40;;;;;;;11.80;8.40;;;23.00;14.40;;;;;;5982156;24;20420;-63
2023/06/17 06:23:09;;;;;;;12.60;8.60;;;22.70;18.80;;;;;;5981967;24;20502;-62
2023/06/17 06:25:35;;;;;;;18.07;8.00;;;23.00;20.70;;;;;;5982513;24;20458;-62
2023/06/17 06:28:02;;;;;;;13.67;9.30;;;23.00;17.40;;;;;;5982119;24;20420;-62
2023/06/17 06:30:31;;;;;;;14.20;8.57;;;23.30;16.50;;;;;;5982915;24;20419;-63
2023/06/17 06:32:58;;;;;;;13.63;7.77;;;23.00;15.60;;;;;;5982126;24;20420;-63
2023/06/17 06:35:25;;;;;;;11.83;7.03;;;23.00;13.00;;;;;;5982137;24;20423;-62
2023/06/17 06:37:52;;;;;;;13.80;7.70;;;22.90;14.30;;;;;;5981970;24;20437;-63
2023/06/17 06:40:19;;;;;;;15.20;7.43;;;23.00;13.30;;;;;;5982787;24;20757;-63
2023/06/17 06:42:46;;;;;;;9.47;6.90;;;23.00;16.50;;;;;;5982522;24;20494;-62
2023/06/17 06:45:13;;;;;;;12.13;7.47;;;23.60;14.80;;;;;;5982033;24;20420;-63
2023/06/17 06:47:41;;;;;;;15.00;7.30;;;23.40;14.70;;;;;;5979139;24;20503;-62
2023/06/17 06:50:09;;;;;;;12.77;7.93;;;23.80;14.90;;;;;;5980746;24;20900;-63
2023/06/17 06:52:36;;;;;;;11.50;9.03;;;23.50;13.60;;;;;;5981689;24;20471;-62
2023/06/17 06:55:03;;;;;;;11.87;7.20;;;23.90;15.00;;;;;;5980594;24;20420;-62
2023/06/17 06:57:29;;;;;;;11.83;8.20;;;24.00;15.10;;;;;;5980673;24;20419;-62
2023/06/17 06:59:56;;;;;;;15.00;8.13;;;24.60;15.40;;;;;;5980628;24;20443;-62
2023/06/17 07:02:23;;;;;;;13.73;7.67;;;24.60;9.70;;;;;;5980130;24;20534;-63
2023/06/17 07:04:52;;;;;;;11.30;7.80;;;24.30;7.60;;;;;;5980046;24;20442;-63
2023/06/17 07:07:18;;;;;;;13.03;8.80;;;24.40;11.60;;;;;;5980683;24;20419;-63
2023/06/17 07:09:45;;;;;;;11.23;7.63;;;24.20;9.60;;;;;;5981858;24;20419;-63
2023/06/17 07:12:12;;;;;;;9.57;6.27;;;24.60;13.50;;;;;;5981934;24;20427;-63
2023/06/17 07:14:39;;;;;;;9.80;6.23;;;24.90;8.10;;;;;;5981404;24;20901;-64
2023/06/17 07:17:06;;;;;;;15.60;7.23;;;25.30;8.30;;;;;;5981819;24;20426;-64
2023/06/17 07:19:33;;;;;;;12.10;7.10;;;25.60;3.30;;;;;;5981787;24;20395;-63
2023/06/17 07:22:01;;;;;;;10.63;6.43;;;26.10;4.00;;;;;;5981458;24;20980;-64
2023/06/17 07:24:28;;;;;;;14.10;7.73;;;26.10;4.80;;;;;;5981163;24;20985;-62
2023/06/17 07:26:55;;;;;;;12.00;8.50;;;26.00;1.00;;;;;;5982273;24;20476;-63
2023/06/17 07:29:22;;;;;;;12.50;7.10;;;25.80;2.00;;;;;;5982068;24;20419;-63
2023/06/17 07:31:49;;;;;;;8.83;6.47;;;26.30;4.90;;;;;;5982094;24;20501;-63
2023/06/17 07:34:16;;;;;;;11.17;6.80;;;26.50;5.00;;;;;;5981732;24;20459;-63
2023/06/17 07:36:43;;;;;;;11.13;8.03;;;27.10;6.00;;;;;;5982399;24;20421;-63
2023/06/17 07:39:12;;;;;;;10.70;6.07;;;27.20;1.00;;;;;;5981785;24;20504;-62
2023/06/17 07:41:38;;;;;;;12.37;7.40;;;27.60;1.70;;;;;;5982125;24;20414;-63
2023/06/17 07:44:05;;;;;;;10.90;6.47;;;27.40;2.20;;;;;;5979921;24;20431;-62
2023/06/17 07:46:32;;;;;;;10.40;6.67;;;27.00;1.00;;;;;;5982481;24;20815;-63
2023/06/17 07:48:59;;;;;;;10.07;6.73;;;27.30;1.00;;;;;;5981041;24;20422;-63
2023/06/17 07:51:26;;;;;;;12.77;7.87;;;27.40;1.00;;;;;;5981808;24;20730;-63
2023/06/17 07:53:53;;;;;;;10.70;6.70;;;27.70;1.00;;;;;;5981707;24;20794;-62
2023/06/17 07:56:21;;;;;;;14.50;7.97;;;27.60;1.00;;;;;;5982295;24;20517;-62
2023/06/17 07:58:49;;;;;;;11.67;6.73;;;28.10;1.00;;;;;;5982202;24;20430;-64
2023/06/17 08:01:16;;;;;;;10.30;6.83;;;28.30;1.00;;;;;;5983633;24;20422;-63
2023/06/17 08:03:43;;;;;;;12.00;7.77;;;28.20;1.00;;;;;;5983400;24;20519;-63
2023/06/17 08:06:13;;;;;;;14.17;6.70;;;28.30;1.00;;;;;;5984053;24;20723;-64
2023/06/17 08:08:40;;;;;;;11.50;7.07;;;28.50;1.00;;;;;;5982944;24;20912;-65
2023/06/17 08:11:07;;;;;;;10.53;6.40;;;28.80;1.00;;;;;;5983099;24;20425;-65
2023/06/17 08:13:35;;;;;;;9.03;6.67;;;29.00;1.00;;;;;;5983430;24;20728;-67
2023/06/17 08:16:03;;;;;;;14.40;6.43;;;28.90;1.00;;;;;;5983764;24;20727;-65
2023/06/17 08:18:29;;;;;;;8.50;6.30;;;29.40;1.00;;;;;;5983833;24;20453;-66
2023/06/17 08:20:56;;;;;;;10.70;6.03;;;29.10;1.00;;;;;;5983754;24;20419;-70
2023/06/17 08:23:23;;;;;;;10.03;5.73;;;28.80;1.00;;;;;;5983015;24;20915;-65
2023/06/17 08:25:50;;;;;;;9.40;6.13;;;28.50;1.00;;;;;;5983212;24;20394;-64
2023/06/17 08:28:17;;;;;;;10.10;6.20;;;28.40;1.00;;;;;;5981205;24;20398;-65
2023/06/17 08:30:45;;;;;;;9.97;6.30;;;28.00;1.00;;;;;;5982434;24;20447;-65
2023/06/17 08:33:12;;;;;;;12.33;5.60;;;28.10;1.00;;;;;;5982072;24;20453;-65
2023/06/17 08:35:39;;;;;;;11.33;6.17;;;28.50;1.00;;;;;;5982534;24;20803;-65
2023/06/17 08:38:06;;;;;;;8.40;4.37;;;28.90;1.00;;;;;;5981328;24;20419;-64
2023/06/17 08:40:36;;;;;;;8.77;5.87;;;29.10;1.00;;;;;;5982288;24;20458;-64
2023/06/17 08:43:05;;;;;;;8.33;4.30;;;29.80;1.00;;;;;;5981729;24;20526;-64
2023/06/17 08:45:32;;;;;;;7.67;3.80;;;29.50;1.00;;;;;;5982159;24;20780;-64
2023/06/17 08:48:00;;;;;;;8.30;4.90;;;29.00;1.00;;;;;;5982447;24;20446;-64
2023/06/17 08:50:29;;;;;;;9.07;3.80;;;29.10;1.00;;;;;;5981841;24;20498;-64
2023/06/17 08:52:57;;;;;;;9.80;4.50;;;29.90;1.00;;;;;;5981597;24;20500;-64
2023/06/17 08:55:24;;;;;;;7.47;3.83;;;29.50;1.00;;;;;;5982215;24;20400;-64
2023/06/17 08:57:52;;;;;;;9.33;3.97;;;29.20;1.00;;;;;;5981932;24;20419;-63
2023/06/17 09:00:19;;;;;;;13.57;3.93;;;28.50;1.00;;;;;;5981909;24;20904;-63
2023/06/17 09:02:47;;;;;;;7.93;4.07;;;28.80;1.00;;;;;;5981040;24;20982;-63
2023/06/17 09:05:16;;;;;;;7.67;3.80;;;28.80;1.00;;;;;;5980742;24;20424;-63
2023/06/17 09:07:43;;;;;;;8.00;3.70;;;28.50;1.00;;;;;;5981458;24;20494;-63
2023/06/17 09:10:10;;;;;;;11.33;4.40;;;28.60;1.00;;;;;;5981998;24;20897;-63
2023/06/17 09:12:38;;;;;;;8.23;4.57;;;29.00;1.00;;;;;;5981417;24;20423;-64
2023/06/17 09:15:07;;;;;;;9.37;4.20;;;29.50;1.00;;;;;;5980167;24;20901;-63
2023/06/17 09:17:34;;;;;;;10.00;4.40;;;30.20;1.00;;;;;;5982733;24;20426;-64
2023/06/17 09:20:11;;;;;;;8.87;5.00;;;29.50;1.00;;;;;;5982821;24;20430;-64
2023/06/17 09:22:44;;;;;;;10.17;4.80;;;29.10;1.00;;;;;;5983350;24;20414;-63
2023/06/17 09:25:13;;;;;;;8.43;4.20;;;29.30;1.00;;;;;;5982816;24;20511;-64
2023/06/17 09:27:46;;;;;;;10.60;5.30;;;29.60;1.00;;;;;;5982854;24;20427;-63
2023/06/17 09:30:14;;;;;;;7.50;4.17;;;29.80;1.00;;;;;;5982236;24;20382;-63
2023/06/17 09:32:42;;;;;;;9.13;4.97;;;29.90;1.00;;;;;;5982703;24;20415;-65
2023/06/17 09:35:15;;;;;;;7.43;4.53;;;30.00;1.00;;;;;;5982182;24;20423;-64
2023/06/17 09:37:45;;;;;;;7.63;4.30;;;30.00;1.00;;;;;;5982959;24;20435;-64
2023/06/17 09:40:13;;;;;;;8.47;4.70;;;30.00;1.00;;;;;;5984532;24;20178;-65
2023/06/17 09:42:43;;;;;;;16.60;5.17;;;29.40;1.00;;;;;;5984724;24;20742;-64
2023/06/17 09:45:19;;;;;;;7.97;4.87;;;29.50;1.00;;;;;;5984232;24;20395;-66
2023/06/17 09:47:52;;;;;;;9.60;4.53;;;29.00;1.00;;;;;;5981491;24;20902;-67
2023/06/17 09:50:20;;;;;;;8.47;4.63;;;30.10;1.00;;;;;;5982324;24;20426;-66
2023/06/17 09:52:52;;;;;;;7.70;5.10;;;31.20;1.00;;;;;;5982241;24;20416;-67
2023/06/17 09:55:19;;;;;;;7.43;4.30;;;30.10;1.00;;;;;;5981549;24;20378;-66
2023/06/17 09:57:53;;;;;;;8.97;4.80;;;31.10;1.00;;;;;;5981863;24;20419;-67
2023/06/17 10:00:23;;;;;;;10.97;4.80;;;30.50;1.00;;;;;;5981332;24;20460;-66
2023/06/17 10:02:50;;;;;;;9.17;5.80;;;30.40;1.00;;;;;;5981739;24;20520;-67
2023/06/17 10:05:17;;;;;;;7.70;4.30;;;30.80;1.00;;;;;;5990161;24;21023;-68
2023/06/17 10:07:46;;;;;;;11.00;4.73;;;30.90;1.00;;;;;;5981950;24;20427;-67
2023/06/17 10:10:15;;;;;;;8.87;5.10;;;30.90;1.00;;;;;;5981343;24;20734;-67
2023/06/17 10:12:45;;;;;;;9.50;4.20;;;30.70;1.00;;;;;;5981420;24;20423;-67
2023/06/17 10:15:13;;;;;;;10.13;4.67;;;31.20;1.00;;;;;;5981067;24;20420;-67
2023/06/17 10:17:43;;;;;;;10.00;4.20;;;31.50;1.00;;;;;;5981199;24;20481;-68
2023/06/17 10:20:13;;;;;;;7.90;4.90;;;31.60;1.00;;;;;;5979996;24;20808;-68
2023/06/17 10:22:41;;;;;;;8.18;4.90;;;32.50;1.00;;;;;;5980785;24;20449;-69
2023/06/17 10:25:11;;;;;;;7.30;4.27;;;33.20;1.00;;;;;;5981197;24;20179;-69
2023/06/17 10:27:43;;;;;;;8.00;5.33;;;34.10;1.00;;;;;;5990487;24;20801;-69
2023/06/17 10:30:26;;;;;;;7.43;4.57;;;34.10;1.00;;;;;;5981320;24;20405;-69
2023/06/17 10:32:55;;;;;;;7.33;4.60;;;34.40;1.00;;;;;;5981543;24;20424;-69
2023/06/17 10:35:22;;;;;;;8.27;4.70;;;33.50;1.00;;;;;;5982376;24;20798;-68
2023/06/17 10:37:51;;;;;;;8.50;4.77;;;32.30;1.00;;;;;;5981908;24;20419;-68
2023/06/17 10:40:23;;;;;;;6.97;4.00;;;31.50;1.00;;;;;;5982571;24;20417;-69
2023/06/17 10:43:18;;;;;;;7.30;3.57;;;30.60;1.00;;;;;;5982298;24;20472;-68
2023/06/17 10:45:53;;;;;;;7.90;4.20;;;29.90;1.00;;;;;;5982412;24;20404;-68
2023/06/17 10:48:26;;;;;;;7.27;4.37;;;29.70;1.00;;;;;;5981454;24;20483;-68
2023/06/17 10:50:55;;;;;;;7.83;4.37;;;29.60;1.00;;;;;;5983159;24;20450;-66
2023/06/17 10:53:30;;;;;;;8.43;4.63;;;29.90;1.00;;;;;;5981888;24;20701;-66
2023/06/17 10:55:58;;;;;;;9.63;4.37;;;30.30;1.00;;;;;;5982810;24;20419;-67
2023/06/17 10:58:31;;;;;;;6.10;3.47;;;29.90;1.00;;;;;;5981864;24;20502;-67
2023/06/17 11:01:03;;;;;;;10.33;4.60;;;30.20;1.00;;;;;;5983053;24;20737;-67
2023/06/17 11:03:30;;;;;;;7.67;4.50;;;30.40;1.00;;;;;;5981923;24;20458;-67
2023/06/17 11:06:01;;;;;;;8.07;5.00;;;30.50;1.00;;;;;;5982332;24;20420;-67
2023/06/17 11:08:32;;;;;;;7.43;4.60;;;31.30;1.00;;;;;;5981667;24;20400;-67
2023/06/17 11:11:10;;;;;;;9.23;4.20;;;31.70;1.00;;;;;;5982331;24;20394;-67
2023/06/17 11:13:40;;;;;;;6.80;3.80;;;32.20;1.00;;;;;;5981634;24;20514;-67
2023/06/17 11:16:07;;;;;;;13.37;4.67;;;32.70;1.00;;;;;;5982402;24;20419;-67
2023/06/17 11:18:38;;;;;;;10.77;3.90;;;33.20;1.00;;;;;;5982701;24;20946;-68
2023/06/17 11:21:06;;;;;;;8.80;4.00;;;32.70;1.00;;;;;;5982680;24;20419;-67
2023/06/17 11:23:33;;;;;;;9.03;4.50;;;32.30;1.00;;;;;;5982149;24;20420;-68
2023/06/17 11:26:01;;;;;;;8.13;4.37;;;31.70;1.00;;;;;;5982561;24;20427;-67
2023/06/17 11:28:28;;;;;;;9.30;4.87;;;32.40;1.00;;;;;;5982442;24;20394;-67
2023/06/17 11:30:56;;;;;;;7.37;4.23;;;32.70;1.00;;;;;;5982709;24;20394;-67
2023/06/17 11:33:24;;;;;;;10.20;4.50;;;33.40;1.00;;;;;;5982049;24;20414;-67
2023/06/17 11:35:53;;;;;;;9.20;4.00;;;32.00;1.00;;;;;;5991741;24;20398;-67
2023/06/17 11:38:22;;;;;;;9.10;4.80;;;31.70;1.00;;;;;;5982342;24;20401;-67
2023/06/17 11:40:53;;;;;;;8.43;4.37;;;32.40;1.00;;;;;;5982610;24;20450;-68
2023/06/17 11:43:24;;;;;;;8.60;4.33;;;32.70;1.00;;;;;;5981485;24;20410;-68
2023/06/17 11:45:51;;;;;;;7.30;4.47;;;32.70;1.00;;;;;;5982153;24;20917;-68
2023/06/17 11:48:20;;;;;;;11.40;4.47;;;31.80;1.00;;;;;;5981679;24;20394;-68
2023/06/17 11:50:50;;;;;;;7.20;4.00;;;31.80;1.00;;;;;;5982644;24;20401;-68
2023/06/17 11:53:17;;;;;;;7.03;4.00;;;31.70;1.00;;;;;;5981967;24;20502;-68
2023/06/17 11:55:45;;;;;;;9.30;4.80;;;32.00;1.00;;;;;;5982554;24;20404;-68
2023/06/17 11:58:13;;;;;;;6.63;3.97;;;33.00;1.00;;;;;;5982085;24;20428;-68
2023/06/17 12:01:10;;;;;;;6.70;4.03;;;32.50;1.00;;;;;;5981478;24;20470;-65
2023/06/17 12:03:38;;;;;;;9.83;4.93;;;32.80;1.00;;;;;;5980937;24;20420;-68
2023/06/17 12:06:06;;;;;;;8.60;4.73;;;32.70;1.00;;;;;;5982545;24;20455;-68
2023/06/17 12:08:33;;;;;;;7.60;4.80;;;33.10;1.00;;;;;;5981994;24;20709;-69
2023/06/17 12:11:07;;;;;;;7.20;4.00;;;34.30;1.00;;;;;;5982058;24;20426;-69
2023/06/17 12:13:39;;;;;;;7.70;4.30;;;33.60;1.00;;;;;;5981303;24;20489;-68
2023/06/17 12:16:10;;;;;;;8.20;4.27;;;34.10;1.00;;;;;;5981851;24;20419;-66
2023/06/17 12:18:47;;;;;;;8.60;4.73;;;33.90;1.00;;;;;;5981724;24;20408;-67
2023/06/17 12:21:14;;;;;;;7.63;4.60;;;32.90;1.00;;;;;;5980497;24;20540;-67
2023/06/17 12:23:40;;;;;;;7.13;4.10;;;33.90;1.00;;;;;;5977481;24;20474;-67
2023/06/17 12:26:09;;;;;;;6.67;4.30;;;35.20;1.00;;;;;;5981030;24;20694;-66
2023/06/17 12:28:36;;;;;;;7.10;5.00;;;35.90;1.00;;;;;;5979082;24;20423;-68
2023/06/17 12:31:03;;;;;;;8.00;4.23;;;37.10;1.00;;;;;;5980445;24;20446;-68
2023/06/17 12:33:30;;;;;;;11.20;6.00;;;36.20;1.00;;;;;;5979440;24;21007;-67
2023/06/17 12:35:59;;;;;;;9.90;4.80;;;36.40;1.00;;;;;;5980607;24;20395;-67
2023/06/17 12:38:29;;;;;;;7.83;4.10;;;37.20;1.00;;;;;;5980577;24;20456;-67
2023/06/17 12:40:57;;;;;;;6.80;4.60;;;38.90;1.00;;;;;;5980759;24;20829;-67
2023/06/17 12:43:23;;;;;;;6.63;4.17;;;38.00;1.00;;;;;;5980542;24;20484;-67
2023/06/17 12:45:50;;;;;;;6.17;3.80;;;39.10;1.00;;;;;;5981316;24;20426;-67